sensor_id;sensor_type;location;lat;lon;timestamp;pressure;altitude;pressure_sealevel;temperature;humidity
4410;BME280;2218;51.408;7.208;2023-03-04T00:01:52;100600.34;;;18.26;31.15
4410;BME280;2218;51.408;7.208;2023-03-04T00:04:19;100592.53;;;18.25;31.04
4410;BME280;2218;51.408;7.208;2023-03-04T00:06:46;100593.44;;;18.24;31.00
4410;BME280;2218;51.408;7.208;2023-03-04T00:09:14;100595.22;;;18.23;31.21
4410;BME280;2218;51.408;7.208;2023-03-04T00:11:40;100597.09;;;18.21;30.98
4410;BME280;2218;51.408;7.208;2023-03-04T00:14:07;100595.31;;;18.22;31.07
4410;BME280;2218;51.408;7.208;2023-03-04T00:16:34;100594.47;;;18.21;31.07
4410;BME280;2218;51.408;7.208;2023-03-04T00:19:03;100594.47;;;18.21;31.01
4410;BME280;2218;51.408;7.208;2023-03-04T00:21:30;100594.47;;;18.21;31.34
4410;BME280;2218;51.408;7.208;2023-03-04T00:23:57;100588.41;;;18.19;30.94
4410;BME280;2218;51.408;7.208;2023-03-04T00:26:24;100584.94;;;18.19;31.08
4410;BME280;2218;51.408;7.208;2023-03-04T00:28:51;100599.88;;;18.18;31.12
4410;BME280;2218;51.408;7.208;2023-03-04T00:31:17;100595.56;;;18.17;31.40
4410;BME280;2218;51.408;7.208;2023-03-04T00:33:45;100589.44;;;18.17;31.12
4410;BME280;2218;51.408;7.208;2023-03-04T00:36:13;100585.13;;;18.16;30.88
4410;BME280;2218;51.408;7.208;2023-03-04T00:38:40;100589.44;;;18.17;31.00
4410;BME280;2218;51.408;7.208;2023-03-04T00:41:07;100596.50;;;18.16;30.74
4410;BME280;2218;51.408;7.208;2023-03-04T00:43:34;100583.38;;;18.15;31.16
4410;BME280;2218;51.408;7.208;2023-03-04T00:46:01;100586.03;;;18.15;31.16
4410;BME280;2218;51.408;7.208;2023-03-04T00:48:29;100586.97;;;18.14;31.10
4410;BME280;2218;51.408;7.208;2023-03-04T00:50:56;100580.84;;;18.13;31.16
4410;BME280;2218;51.408;7.208;2023-03-04T00:53:24;100580.84;;;18.13;31.23
4410;BME280;2218;51.408;7.208;2023-03-04T00:55:51;100587.97;;;18.11;31.21
4410;BME280;2218;51.408;7.208;2023-03-04T00:58:18;100576.59;;;18.11;31.46
4410;BME280;2218;51.408;7.208;2023-03-04T01:00:44;100574.81;;;18.11;31.15
4410;BME280;2218;51.408;7.208;2023-03-04T01:03:11;100579.25;;;18.11;31.26
4410;BME280;2218;51.408;7.208;2023-03-04T01:05:38;100571.41;;;18.09;31.15
4410;BME280;2218;51.408;7.208;2023-03-04T01:08:06;100577.50;;;18.09;31.23
4410;BME280;2218;51.408;7.208;2023-03-04T01:10:34;100577.59;;;18.08;31.14
4410;BME280;2218;51.408;7.208;2023-03-04T01:13:01;100571.50;;;18.07;31.20
4410;BME280;2218;51.408;7.208;2023-03-04T01:15:28;100575.91;;;18.07;31.39
4410;BME280;2218;51.408;7.208;2023-03-04T01:17:55;100570.66;;;18.07;31.16
4410;BME280;2218;51.408;7.208;2023-03-04T01:20:23;100574.13;;;18.07;31.32
4410;BME280;2218;51.408;7.208;2023-03-04T01:22:50;100570.66;;;18.07;31.49
4410;BME280;2218;51.408;7.208;2023-03-04T01:25:17;100573.38;;;18.05;31.52
4410;BME280;2218;51.408;7.208;2023-03-04T01:27:45;100565.53;;;18.04;31.39
4410;BME280;2218;51.408;7.208;2023-03-04T01:30:12;100548.91;;;18.03;31.26
4410;BME280;2218;51.408;7.208;2023-03-04T01:32:39;100552.47;;;18.02;31.53
4410;BME280;2218;51.408;7.208;2023-03-04T01:35:08;100551.63;;;18.02;31.31
4410;BME280;2218;51.408;7.208;2023-03-04T01:37:35;100558.56;;;18.03;31.12
4410;BME280;2218;51.408;7.208;2023-03-04T01:40:02;100552.47;;;18.02;30.98
4410;BME280;2218;51.408;7.208;2023-03-04T01:42:33;100550.75;;;18.01;31.19
4410;BME280;2218;51.408;7.208;2023-03-04T01:45:04;100551.63;;;18.02;31.30
4410;BME280;2218;51.408;7.208;2023-03-04T01:47:34;100548.19;;;18.00;31.40
4410;BME280;2218;51.408;7.208;2023-03-04T01:50:04;100545.56;;;18.00;31.09
4410;BME280;2218;51.408;7.208;2023-03-04T01:52:38;100544.72;;;17.99;31.31
4410;BME280;2218;51.408;7.208;2023-03-04T01:55:15;100546.50;;;17.99;31.32
4410;BME280;2218;51.408;7.208;2023-03-04T01:57:44;100547.44;;;17.98;31.38
4410;BME280;2218;51.408;7.208;2023-03-04T02:00:26;100547.44;;;17.98;31.81
4410;BME280;2218;51.408;7.208;2023-03-04T02:02:57;100537.00;;;17.96;31.35
4410;BME280;2218;51.408;7.208;2023-03-04T02:05:26;100537.84;;;17.97;31.50
4410;BME280;2218;51.408;7.208;2023-03-04T02:07:55;100537.84;;;17.97;31.42
4410;BME280;2218;51.408;7.208;2023-03-04T02:10:23;100539.69;;;17.95;31.29
4410;BME280;2218;51.408;7.208;2023-03-04T02:12:51;100538.78;;;17.96;31.35
4410;BME280;2218;51.408;7.208;2023-03-04T02:15:21;100538.78;;;17.96;31.47
4410;BME280;2218;51.408;7.208;2023-03-04T02:17:49;100543.09;;;17.97;31.48
4410;BME280;2218;51.408;7.208;2023-03-04T02:20:35;100535.13;;;17.98;31.06
4410;BME280;2218;51.408;7.208;2023-03-04T02:23:13;100530.66;;;18.00;31.14
4410;BME280;2218;51.408;7.208;2023-03-04T02:25:49;100529.63;;;18.03;30.91
4410;BME280;2218;51.408;7.208;2023-03-04T02:28:22;100532.13;;;18.06;31.46
4410;BME280;2218;51.408;7.208;2023-03-04T02:30:49;100529.41;;;18.07;31.14
4410;BME280;2218;51.408;7.208;2023-03-04T02:33:18;100521.44;;;18.09;31.00
4410;BME280;2218;51.408;7.208;2023-03-04T02:35:45;100530.09;;;18.11;30.91
4410;BME280;2218;51.408;7.208;2023-03-04T02:38:13;100523.81;;;18.14;30.73
4410;BME280;2218;51.408;7.208;2023-03-04T02:40:45;100519.41;;;18.14;31.06
4410;BME280;2218;51.408;7.208;2023-03-04T02:43:13;100522.81;;;18.16;31.44
4410;BME280;2218;51.408;7.208;2023-03-04T02:45:45;100525.47;;;18.16;31.45
4410;BME280;2218;51.408;7.208;2023-03-04T02:48:17;100517.56;;;18.16;31.15
4410;BME280;2218;51.408;7.208;2023-03-04T02:50:48;100514.00;;;18.17;31.20
4410;BME280;2218;51.408;7.208;2023-03-04T02:53:16;100510.44;;;18.18;31.24
4410;BME280;2218;51.408;7.208;2023-03-04T02:55:43;100511.28;;;18.19;31.28
4410;BME280;2218;51.408;7.208;2023-03-04T02:58:12;100503.31;;;18.20;31.32
4410;BME280;2218;51.408;7.208;2023-03-04T03:00:42;100507.72;;;18.20;31.27
4410;BME280;2218;51.408;7.208;2023-03-04T03:03:10;100506.81;;;18.21;31.54
4410;BME280;2218;51.408;7.208;2023-03-04T03:05:38;100499.75;;;18.21;31.40
4410;BME280;2218;51.408;7.208;2023-03-04T03:08:06;100507.56;;;18.23;31.16
4410;BME280;2218;51.408;7.208;2023-03-04T03:10:34;100502.31;;;18.23;31.52
4410;BME280;2218;51.408;7.208;2023-03-04T03:13:02;100499.66;;;18.23;31.03
4410;BME280;2218;51.408;7.208;2023-03-04T03:15:29;100494.31;;;18.24;31.35
4410;BME280;2218;51.408;7.208;2023-03-04T03:17:58;100502.22;;;18.24;31.17
4410;BME280;2218;51.408;7.208;2023-03-04T03:20:24;100501.31;;;18.25;31.60
4410;BME280;2218;51.408;7.208;2023-03-04T03:22:51;100499.56;;;18.24;31.19
4410;BME280;2218;51.408;7.208;2023-03-04T03:25:18;100495.09;;;18.26;31.43
4410;BME280;2218;51.408;7.208;2023-03-04T03:27:45;100489.84;;;18.26;31.13
4410;BME280;2218;51.408;7.208;2023-03-04T03:30:14;100490.59;;;18.28;31.27
4410;BME280;2218;51.408;7.208;2023-03-04T03:32:41;100487.03;;;18.29;31.07
4410;BME280;2218;51.408;7.208;2023-03-04T03:35:10;100482.69;;;18.28;31.18
4410;BME280;2218;51.408;7.208;2023-03-04T03:37:38;100487.03;;;18.29;31.24
4410;BME280;2218;51.408;7.208;2023-03-04T03:40:07;100485.34;;;18.28;31.18
4410;BME280;2218;51.408;7.208;2023-03-04T03:42:34;100484.50;;;18.28;31.18
4410;BME280;2218;51.408;7.208;2023-03-04T03:45:01;100488.75;;;18.30;31.34
4410;BME280;2218;51.408;7.208;2023-03-04T03:47:28;100480.91;;;18.29;31.19
4410;BME280;2218;51.408;7.208;2023-03-04T03:49:55;100487.03;;;18.29;31.30
4410;BME280;2218;51.408;7.208;2023-03-04T03:52:23;100484.34;;;18.31;31.41
4410;BME280;2218;51.408;7.208;2023-03-04T03:54:50;100487.03;;;18.29;31.22
4410;BME280;2218;51.408;7.208;2023-03-04T03:57:17;100488.75;;;18.30;31.49
4410;BME280;2218;51.408;7.208;2023-03-04T03:59:44;100486.88;;;18.32;30.92
4410;BME280;2218;51.408;7.208;2023-03-04T04:02:11;100485.94;;;18.33;31.15
4410;BME280;2218;51.408;7.208;2023-03-04T04:04:38;100482.56;;;18.31;31.28
4410;BME280;2218;51.408;7.208;2023-03-04T04:07:05;100479.91;;;18.31;31.30
4410;BME280;2218;51.408;7.208;2023-03-04T04:09:33;100480.78;;;18.32;31.59
4410;BME280;2218;51.408;7.208;2023-03-04T04:12:00;100480.69;;;18.33;31.28
4410;BME280;2218;51.408;7.208;2023-03-04T04:14:27;100478.97;;;18.32;31.31
4410;BME280;2218;51.408;7.208;2023-03-04T04:16:54;100478.03;;;18.33;31.34
4410;BME280;2218;51.408;7.208;2023-03-04T04:19:21;100484.16;;;18.34;31.57
4410;BME280;2218;51.408;7.208;2023-03-04T04:21:48;100472.78;;;18.33;31.17
4410;BME280;2218;51.408;7.208;2023-03-04T04:24:15;100475.41;;;18.33;31.37
4410;BME280;2218;51.408;7.208;2023-03-04T04:26:44;100472.78;;;18.33;31.24
4410;BME280;2218;51.408;7.208;2023-03-04T04:29:13;100479.75;;;18.34;31.23
4410;BME280;2218;51.408;7.208;2023-03-04T04:31:40;100481.47;;;18.36;31.35
4410;BME280;2218;51.408;7.208;2023-03-04T04:34:07;100474.47;;;18.34;31.31
4410;BME280;2218;51.408;7.208;2023-03-04T04:36:35;100478.91;;;18.34;31.15
4410;BME280;2218;51.408;7.208;2023-03-04T04:39:02;100473.56;;;18.36;30.99
4410;BME280;2218;51.408;7.208;2023-03-04T04:41:35;100479.75;;;18.34;31.13
4410;BME280;2218;51.408;7.208;2023-03-04T04:44:04;100479.75;;;18.34;30.97
4410;BME280;2218;51.408;7.208;2023-03-04T04:46:31;100481.47;;;18.36;31.06
4410;BME280;2218;51.408;7.208;2023-03-04T04:48:58;100473.63;;;18.34;31.41
4410;BME280;2218;51.408;7.208;2023-03-04T04:51:26;100483.31;;;18.33;31.12
4410;BME280;2218;51.408;7.208;2023-03-04T04:53:53;100486.72;;;18.36;31.47
4410;BME280;2218;51.408;7.208;2023-03-04T04:56:23;100483.25;;;18.35;31.08
4410;BME280;2218;51.408;7.208;2023-03-04T04:58:52;100490.22;;;18.36;31.00
4410;BME280;2218;51.408;7.208;2023-03-04T05:01:22;100485.00;;;18.34;31.08
4410;BME280;2218;51.408;7.208;2023-03-04T05:03:49;100491.16;;;18.35;31.25
4410;BME280;2218;51.408;7.208;2023-03-04T05:06:19;100489.38;;;18.36;31.32
4410;BME280;2218;51.408;7.208;2023-03-04T05:08:46;100495.53;;;18.34;31.27
4410;BME280;2218;51.408;7.208;2023-03-04T05:11:14;100492.00;;;18.36;31.38
4410;BME280;2218;51.408;7.208;2023-03-04T05:13:41;100486.72;;;18.36;31.25
4410;BME280;2218;51.408;7.208;2023-03-04T05:16:08;100492.00;;;18.36;31.12
4410;BME280;2218;51.408;7.208;2023-03-04T05:18:36;100488.41;;;18.37;31.54
4410;BME280;2218;51.408;7.208;2023-03-04T05:21:04;100479.59;;;18.38;31.23
4410;BME280;2218;51.408;7.208;2023-03-04T05:23:34;100479.59;;;18.38;30.94
4410;BME280;2218;51.408;7.208;2023-03-04T05:26:03;100476.19;;;18.36;31.31
4410;BME280;2218;51.408;7.208;2023-03-04T05:28:31;100475.25;;;18.37;31.23
4410;BME280;2218;51.408;7.208;2023-03-04T05:30:58;100478.75;;;18.37;31.39
4410;BME280;2218;51.408;7.208;2023-03-04T05:33:25;100475.25;;;18.37;31.28
4410;BME280;2218;51.408;7.208;2023-03-04T05:35:54;100469.06;;;18.38;31.33
4410;BME280;2218;51.408;7.208;2023-03-04T05:38:21;100469.06;;;18.38;31.31
4410;BME280;2218;51.408;7.208;2023-03-04T05:40:48;100468.22;;;18.37;31.26
4410;BME280;2218;51.408;7.208;2023-03-04T05:43:15;100477.06;;;18.36;31.55
4410;BME280;2218;51.408;7.208;2023-03-04T05:45:42;100476.19;;;18.36;31.28
4410;BME280;2218;51.408;7.208;2023-03-04T05:48:09;100479.59;;;18.38;31.22
4410;BME280;2218;51.408;7.208;2023-03-04T05:50:36;100484.84;;;18.38;31.30
4410;BME280;2218;51.408;7.208;2023-03-04T05:53:04;100478.75;;;18.37;31.25
4410;BME280;2218;51.408;7.208;2023-03-04T05:55:31;100479.59;;;18.38;31.26
4410;BME280;2218;51.408;7.208;2023-03-04T05:57:58;100484.75;;;18.39;31.04
4410;BME280;2218;51.408;7.208;2023-03-04T06:00:26;100486.53;;;18.39;31.42
4410;BME280;2218;51.408;7.208;2023-03-04T06:02:53;100484.84;;;18.38;31.35
4410;BME280;2218;51.408;7.208;2023-03-04T06:05:21;100488.34;;;18.38;31.30
4410;BME280;2218;51.408;7.208;2023-03-04T06:07:48;100497.06;;;18.39;31.25
4410;BME280;2218;51.408;7.208;2023-03-04T06:10:17;100491.81;;;18.39;31.19
4410;BME280;2218;51.408;7.208;2023-03-04T06:12:44;100491.81;;;18.39;31.30
4410;BME280;2218;51.408;7.208;2023-03-04T06:15:12;100495.28;;;18.39;31.30
4410;BME280;2218;51.408;7.208;2023-03-04T06:17:40;100502.34;;;18.39;31.48
4410;BME280;2218;51.408;7.208;2023-03-04T06:20:09;100501.50;;;18.38;31.50
4410;BME280;2218;51.408;7.208;2023-03-04T06:22:36;100507.59;;;18.39;31.34
4410;BME280;2218;51.408;7.208;2023-03-04T06:25:04;100506.66;;;18.40;31.35
4410;BME280;2218;51.408;7.208;2023-03-04T06:27:33;100507.59;;;18.39;31.61
4410;BME280;2218;51.408;7.208;2023-03-04T06:30:00;100512.88;;;18.39;31.53
4410;BME280;2218;51.408;7.208;2023-03-04T06:32:27;100512.72;;;18.42;31.42
4410;BME280;2218;51.408;7.208;2023-03-04T06:34:54;100513.66;;;18.41;31.32
4410;BME280;2218;51.408;7.208;2023-03-04T06:37:21;100513.72;;;18.39;31.46
4410;BME280;2218;51.408;7.208;2023-03-04T06:39:48;100509.28;;;18.40;31.36
4410;BME280;2218;51.408;7.208;2023-03-04T06:42:15;100506.66;;;18.40;31.20
4410;BME280;2218;51.408;7.208;2023-03-04T06:44:44;100511.03;;;18.41;31.71
4410;BME280;2218;51.408;7.208;2023-03-04T06:47:10;100515.50;;;18.39;31.34
4410;BME280;2218;51.408;7.208;2023-03-04T06:49:37;100517.19;;;18.40;31.45
4410;BME280;2218;51.408;7.208;2023-03-04T06:52:04;100519.06;;;18.38;31.42
4410;BME280;2218;51.408;7.208;2023-03-04T06:54:31;100518.13;;;18.39;31.59
4410;BME280;2218;51.408;7.208;2023-03-04T06:56:58;100516.34;;;18.39;31.77
4410;BME280;2218;51.408;7.208;2023-03-04T06:59:25;100512.88;;;18.39;31.34
4410;BME280;2218;51.408;7.208;2023-03-04T07:01:54;100524.19;;;18.41;31.84
4410;BME280;2218;51.408;7.208;2023-03-04T07:04:21;100529.44;;;18.41;31.13
4410;BME280;2218;51.408;7.208;2023-03-04T07:06:48;100523.38;;;18.39;31.25
4410;BME280;2218;51.408;7.208;2023-03-04T07:09:16;100530.28;;;18.41;31.68
4410;BME280;2218;51.408;7.208;2023-03-04T07:11:43;100527.72;;;18.40;31.36
4410;BME280;2218;51.408;7.208;2023-03-04T07:14:10;100530.28;;;18.41;31.61
4410;BME280;2218;51.408;7.208;2023-03-04T07:16:37;100525.97;;;18.40;31.46
4410;BME280;2218;51.408;7.208;2023-03-04T07:19:06;100534.72;;;18.41;31.43
4410;BME280;2218;51.408;7.208;2023-03-04T07:21:33;100524.19;;;18.41;31.22
4410;BME280;2218;51.408;7.208;2023-03-04T07:24:00;100532.06;;;18.41;31.38
4410;BME280;2218;51.408;7.208;2023-03-04T07:26:27;100532.91;;;18.41;31.48
4410;BME280;2218;51.408;7.208;2023-03-04T07:28:54;100532.81;;;18.43;31.50
4410;BME280;2218;51.408;7.208;2023-03-04T07:31:25;100537.34;;;18.41;31.67
4410;BME280;2218;51.408;7.208;2023-03-04T07:33:57;100540.72;;;18.43;31.82
4410;BME280;2218;51.408;7.208;2023-03-04T07:36:27;100540.72;;;18.43;31.43
4410;BME280;2218;51.408;7.208;2023-03-04T07:38:54;100535.47;;;18.43;31.57
4410;BME280;2218;51.408;7.208;2023-03-04T07:41:24;100544.28;;;18.42;31.61
4410;BME280;2218;51.408;7.208;2023-03-04T07:43:51;100544.28;;;18.42;31.34
4410;BME280;2218;51.408;7.208;2023-03-04T07:46:18;100544.28;;;18.42;31.89
4410;BME280;2218;51.408;7.208;2023-03-04T07:48:45;100538.19;;;18.41;31.60
4410;BME280;2218;51.408;7.208;2023-03-04T07:51:15;100544.28;;;18.42;31.53
4410;BME280;2218;51.408;7.208;2023-03-04T07:53:46;100538.09;;;18.43;31.58
4410;BME280;2218;51.408;7.208;2023-03-04T07:56:17;100543.34;;;18.43;31.56
4410;BME280;2218;51.408;7.208;2023-03-04T07:58:46;100547.78;;;18.42;31.95
4410;BME280;2218;51.408;7.208;2023-03-04T08:01:16;100540.72;;;18.43;31.77
4410;BME280;2218;51.408;7.208;2023-03-04T08:03:43;100541.66;;;18.42;31.93
4410;BME280;2218;51.408;7.208;2023-03-04T08:06:12;100539.88;;;18.42;31.59
4410;BME280;2218;51.408;7.208;2023-03-04T08:08:40;100535.47;;;18.43;31.52
4410;BME280;2218;51.408;7.208;2023-03-04T08:11:15;100539.78;;;18.44;31.80
4410;BME280;2218;51.408;7.208;2023-03-04T08:13:43;100545.84;;;18.46;31.57
4410;BME280;2218;51.408;7.208;2023-03-04T08:16:11;100535.31;;;18.46;31.51
4410;BME280;2218;51.408;7.208;2023-03-04T08:18:41;100538.69;;;18.48;31.66
4410;BME280;2218;51.408;7.208;2023-03-04T08:21:09;100536.84;;;18.50;31.69
4410;BME280;2218;51.408;7.208;2023-03-04T08:23:38;100536.78;;;18.51;31.65
4410;BME280;2218;51.408;7.208;2023-03-04T08:26:10;100545.50;;;18.52;31.90
4410;BME280;2218;51.408;7.208;2023-03-04T08:28:37;100545.50;;;18.52;31.70
4410;BME280;2218;51.408;7.208;2023-03-04T08:31:05;100540.25;;;18.52;32.00
4410;BME280;2218;51.408;7.208;2023-03-04T08:33:33;100538.38;;;18.54;31.89
4410;BME280;2218;51.408;7.208;2023-03-04T08:36:00;100538.38;;;18.54;31.69
4410;BME280;2218;51.408;7.208;2023-03-04T08:38:27;100542.78;;;18.53;31.84
4410;BME280;2218;51.408;7.208;2023-03-04T08:40:55;100540.09;;;18.55;31.74
4410;BME280;2218;51.408;7.208;2023-03-04T08:43:25;100540.09;;;18.55;32.02
4410;BME280;2218;51.408;7.208;2023-03-04T08:45:53;100528.69;;;18.54;31.87
4410;BME280;2218;51.408;7.208;2023-03-04T08:48:21;100534.84;;;18.55;31.96
4410;BME280;2218;51.408;7.208;2023-03-04T08:50:49;100531.25;;;18.56;31.55
4410;BME280;2218;51.408;7.208;2023-03-04T08:53:17;100536.53;;;18.56;31.69
4410;BME280;2218;51.408;7.208;2023-03-04T08:55:45;100540.09;;;18.55;31.83
4410;BME280;2218;51.408;7.208;2023-03-04T08:58:13;100535.69;;;18.55;31.90
4410;BME280;2218;51.408;7.208;2023-03-04T09:00:44;100533.91;;;18.56;31.77
4410;BME280;2218;51.408;7.208;2023-03-04T09:03:13;100537.28;;;18.58;31.73
4410;BME280;2218;51.408;7.208;2023-03-04T09:05:40;100531.25;;;18.56;31.65
4410;BME280;2218;51.408;7.208;2023-03-04T09:08:08;100537.38;;;18.56;32.01
4410;BME280;2218;51.408;7.208;2023-03-04T09:10:34;100543.47;;;18.57;32.33
4410;BME280;2218;51.408;7.208;2023-03-04T09:13:01;100537.38;;;18.56;31.79
4410;BME280;2218;51.408;7.208;2023-03-04T09:15:29;100538.22;;;18.57;32.17
4410;BME280;2218;51.408;7.208;2023-03-04T09:17:57;100533.91;;;18.56;32.12
4410;BME280;2218;51.408;7.208;2023-03-04T09:20:24;100538.22;;;18.57;32.13
4410;BME280;2218;51.408;7.208;2023-03-04T09:22:50;100538.22;;;18.57;32.01
4410;BME280;2218;51.408;7.208;2023-03-04T09:25:17;100533.91;;;18.56;31.88
4410;BME280;2218;51.408;7.208;2023-03-04T09:27:44;100540.00;;;18.56;32.32
4410;BME280;2218;51.408;7.208;2023-03-04T09:30:12;100537.38;;;18.56;32.02
4410;BME280;2218;51.408;7.208;2023-03-04T09:32:39;100534.75;;;18.56;31.95
4410;BME280;2218;51.408;7.208;2023-03-04T09:35:08;100540.94;;;18.55;31.98
4410;BME280;2218;51.408;7.208;2023-03-04T09:37:35;100535.59;;;18.57;32.09
4410;BME280;2218;51.408;7.208;2023-03-04T09:40:04;100536.53;;;18.56;32.05
4410;BME280;2218;51.408;7.208;2023-03-04T09:42:37;100533.91;;;18.56;32.13
4410;BME280;2218;51.408;7.208;2023-03-04T09:45:18;100535.59;;;18.57;32.20
4410;BME280;2218;51.408;7.208;2023-03-04T09:47:48;100537.28;;;18.58;32.11
4410;BME280;2218;51.408;7.208;2023-03-04T09:50:19;100527.69;;;18.57;32.46
4410;BME280;2218;51.408;7.208;2023-03-04T09:53:05;100534.66;;;18.58;32.40
4410;BME280;2218;51.408;7.208;2023-03-04T09:55:37;100536.53;;;18.56;32.31
4410;BME280;2218;51.408;7.208;2023-03-04T09:58:15;100530.31;;;18.57;32.35
4410;BME280;2218;51.408;7.208;2023-03-04T10:00:54;100532.09;;;18.56;32.39
4410;BME280;2218;51.408;7.208;2023-03-04T10:03:26;100532.09;;;18.56;32.52
4410;BME280;2218;51.408;7.208;2023-03-04T10:06:03;100530.41;;;18.55;32.44
4410;BME280;2218;51.408;7.208;2023-03-04T10:08:44;100531.25;;;18.56;32.58
4410;BME280;2218;51.408;7.208;2023-03-04T10:11:20;100531.25;;;18.56;32.59
4410;BME280;2218;51.408;7.208;2023-03-04T10:14:01;100526.84;;;18.56;32.80
4410;BME280;2218;51.408;7.208;2023-03-04T10:16:35;100525.16;;;18.55;32.84
4410;BME280;2218;51.408;7.208;2023-03-04T10:19:23;100525.06;;;18.57;32.60
4410;BME280;2218;51.408;7.208;2023-03-04T10:21:55;100526.00;;;18.56;32.91
4410;BME280;2218;51.408;7.208;2023-03-04T10:24:27;100515.47;;;18.56;32.50
4410;BME280;2218;51.408;7.208;2023-03-04T10:27:00;100515.47;;;18.56;32.79
4410;BME280;2218;51.408;7.208;2023-03-04T10:29:31;100524.31;;;18.55;32.93
4410;BME280;2218;51.408;7.208;2023-03-04T10:31:58;100523.44;;;18.54;32.92
4410;BME280;2218;51.408;7.208;2023-03-04T10:34:25;100519.03;;;18.55;32.90
4410;BME280;2218;51.408;7.208;2023-03-04T10:36:58;100515.47;;;18.56;33.00
4410;BME280;2218;51.408;7.208;2023-03-04T10:39:29;100517.16;;;18.57;33.16
4410;BME280;2218;51.408;7.208;2023-03-04T10:42:00;100518.94;;;18.56;32.92
4410;BME280;2218;51.408;7.208;2023-03-04T10:44:28;100513.59;;;18.58;32.98
4410;BME280;2218;51.408;7.208;2023-03-04T10:46:57;100515.38;;;18.57;33.08
4410;BME280;2218;51.408;7.208;2023-03-04T10:49:27;100511.91;;;18.57;33.12
4410;BME280;2218;51.408;7.208;2023-03-04T10:52:11;100510.19;;;18.56;33.31
4410;BME280;2218;51.408;7.208;2023-03-04T10:54:46;100512.84;;;18.56;33.11
4410;BME280;2218;51.408;7.208;2023-03-04T10:57:18;100511.91;;;18.57;33.23
4410;BME280;2218;51.408;7.208;2023-03-04T10:59:48;100506.78;;;18.54;33.32
4410;BME280;2218;51.408;7.208;2023-03-04T11:02:24;100508.50;;;18.55;33.12
4410;BME280;2218;51.408;7.208;2023-03-04T11:05:06;100508.50;;;18.55;33.18
4410;BME280;2218;51.408;7.208;2023-03-04T11:07:41;100504.94;;;18.56;33.27
4410;BME280;2218;51.408;7.208;2023-03-04T11:10:13;100506.78;;;18.54;33.27
4410;BME280;2218;51.408;7.208;2023-03-04T11:12:47;100503.25;;;18.55;33.54
4410;BME280;2218;51.408;7.208;2023-03-04T11:15:20;100506.72;;;18.55;33.51
4410;BME280;2218;51.408;7.208;2023-03-04T11:17:56;100501.50;;;18.54;33.50
4410;BME280;2218;51.408;7.208;2023-03-04T11:20:31;100496.25;;;18.54;33.72
4410;BME280;2218;51.408;7.208;2023-03-04T11:23:04;100502.38;;;18.54;33.74
4410;BME280;2218;51.408;7.208;2023-03-04T11:25:35;100503.31;;;18.53;33.51
4410;BME280;2218;51.408;7.208;2023-03-04T11:28:12;100497.97;;;18.55;33.51
4410;BME280;2218;51.408;7.208;2023-03-04T11:30:43;100487.44;;;18.55;33.65
4410;BME280;2218;51.408;7.208;2023-03-04T11:33:26;100494.41;;;18.56;33.60
4410;BME280;2218;51.408;7.208;2023-03-04T11:36:07;100483.03;;;18.55;33.46
4410;BME280;2218;51.408;7.208;2023-03-04T11:38:43;100485.56;;;18.57;33.84
4410;BME280;2218;51.408;7.208;2023-03-04T11:41:16;100475.03;;;18.57;33.84
4410;BME280;2218;51.408;7.208;2023-03-04T11:43:46;100468.09;;;18.56;33.72
4410;BME280;2218;51.408;7.208;2023-03-04T11:46:44;100472.50;;;18.55;33.90
4410;BME280;2218;51.408;7.208;2023-03-04T11:53:02;100471.56;;;18.56;34.05
4410;BME280;2218;51.408;7.208;2023-03-04T11:55:43;100460.94;;;18.58;33.78
4410;BME280;2218;51.408;7.208;2023-03-04T12:01:30;100459.94;;;18.60;34.10
4410;BME280;2218;51.408;7.208;2023-03-04T12:04:16;100456.38;;;18.62;34.01
4410;BME280;2218;51.408;7.208;2023-03-04T12:07:08;100445.94;;;18.60;34.08
4410;BME280;2218;51.408;7.208;2023-03-04T12:09:47;100444.97;;;18.61;33.97
4410;BME280;2218;51.408;7.208;2023-03-04T12:12:46;100431.03;;;18.59;34.35
4410;BME280;2218;51.408;7.208;2023-03-04T12:15:19;100433.75;;;18.57;34.29
4410;BME280;2218;51.408;7.208;2023-03-04T12:18:11;100434.63;;;18.58;34.01
4410;BME280;2218;51.408;7.208;2023-03-04T12:21:01;100438.19;;;18.57;34.44
4410;BME280;2218;51.408;7.208;2023-03-04T12:26:38;100428.50;;;18.57;34.30
4410;BME280;2218;51.408;7.208;2023-03-04T12:29:15;100424.09;;;18.58;34.31
4410;BME280;2218;51.408;7.208;2023-03-04T12:31:53;100418.81;;;18.58;34.30
4410;BME280;2218;51.408;7.208;2023-03-04T12:34:36;100407.44;;;18.57;34.38
4410;BME280;2218;51.408;7.208;2023-03-04T12:37:31;100411.75;;;18.58;34.38
4410;BME280;2218;51.408;7.208;2023-03-04T12:40:31;100413.56;;;18.58;34.42
4410;BME280;2218;51.408;7.208;2023-03-04T12:43:25;100407.34;;;18.59;34.55
4410;BME280;2218;51.408;7.208;2023-03-04T12:46:06;100402.94;;;18.59;34.32
4410;BME280;2218;51.408;7.208;2023-03-04T12:48:42;100394.19;;;18.59;34.48
4410;BME280;2218;51.408;7.208;2023-03-04T12:51:25;100396.06;;;18.57;34.72
4410;BME280;2218;51.408;7.208;2023-03-04T12:54:14;100387.22;;;18.58;34.86
4410;BME280;2218;51.408;7.208;2023-03-04T12:56:51;100392.50;;;18.58;34.67
4410;BME280;2218;51.408;7.208;2023-03-04T12:59:23;100389.84;;;18.58;34.58
4410;BME280;2218;51.408;7.208;2023-03-04T13:02:09;100390.81;;;18.57;34.53
4410;BME280;2218;51.408;7.208;2023-03-04T13:04:52;100396.06;;;18.57;34.87
4410;BME280;2218;51.408;7.208;2023-03-04T13:07:41;100392.50;;;18.58;34.66
4410;BME280;2218;51.408;7.208;2023-03-04T13:10:13;100391.56;;;18.59;34.54
4410;BME280;2218;51.408;7.208;2023-03-04T13:12:48;100389.00;;;18.57;34.63
4410;BME280;2218;51.408;7.208;2023-03-04T13:15:34;100392.50;;;18.58;34.78
4410;BME280;2218;51.408;7.208;2023-03-04T13:18:31;100392.50;;;18.58;34.69
4410;BME280;2218;51.408;7.208;2023-03-04T13:21:21;100386.38;;;18.57;35.06
4410;BME280;2218;51.408;7.208;2023-03-04T13:23:49;100379.22;;;18.59;34.72
4410;BME280;2218;51.408;7.208;2023-03-04T13:26:29;100368.78;;;18.58;34.80
4410;BME280;2218;51.408;7.208;2023-03-04T13:29:32;100371.44;;;18.58;35.36
4410;BME280;2218;51.408;7.208;2023-03-04T13:32:04;100374.06;;;18.58;34.92
4410;BME280;2218;51.408;7.208;2023-03-04T13:34:48;100367.09;;;18.57;35.12
4410;BME280;2218;51.408;7.208;2023-03-04T13:37:30;100368.78;;;18.58;34.72
4410;BME280;2218;51.408;7.208;2023-03-04T13:40:32;100364.47;;;18.57;34.92